PWSweather.com
Personal Weather Stations
Station Observations
GRD01
Warsaw, LesznoPL 05-084

WarsawLesznoPL 05-084

Lat: 52.257404, Lon: 20.564847

Elevation: 298

Station Type: WH3080

http://pogoda.kampinos.waw.pl

High Low Average
Temperature 72.0°F22.2°C 42.1°F5.6°C 56.0°F13.3°C
Dew Point 47.7°F8.7°C 34.4°F1.3°C 41.6°F5.3°C
Winds 13.6 mph 21.9 kmh Calm Calm 5.0 mph SE8.0 kmh SE
Wind Gusts 19.0 mph30.6 kmh -- 8.0 mph12.9 kmh
Humidity 78% 37% 61%
Pressure 29.32 in992.9 mb 29.19 in988.5 mb -
Precipitation 0.00 in0.0 mm - -
Hour Temp Dew Point Humidity Winds Wind Gusts Pressure Precip Precip Rate Daily Precip Total
12:00 AM 44.2°F6.8°C 35.4°F1.9°C 71% 0.7 mph SE1.1 kmh SE 3.8 mph6.1 kmh 29.30 in992.2 mb 0.00 in0.0 mm 0.00 in0.0 mm 0.00 in0.0 mm
12:15 AM 44.1°F6.7°C 36.0°F2.2°C 73% 1.6 mph SE2.6 kmh SE 3.8 mph6.1 kmh 29.31 in992.6 mb 0.00 in0.0 mm 0.00 in0.0 mm 0.00 in0.0 mm
12:30 AM 43.9°F6.6°C 35.8°F2.1°C 73% 0.7 mph SE1.1 kmh SE 3.8 mph6.1 kmh 29.30 in992.2 mb 0.00 in0.0 mm 0.00 in0.0 mm 0.00 in0.0 mm
12:45 AM 43.7°F6.5°C 35.6°F2.0°C 73% 2.2 mph SE3.5 kmh SE 3.8 mph6.1 kmh 29.30 in992.2 mb 0.00 in0.0 mm 0.00 in0.0 mm 0.00 in0.0 mm
01:00 AM 43.5°F6.4°C 35.4°F1.9°C 73% 1.6 mph SE2.6 kmh SE 3.1 mph5.0 kmh 29.30 in992.2 mb 0.00 in0.0 mm 0.00 in0.0 mm 0.00 in0.0 mm
01:15 AM 43.7°F6.5°C 36.0°F2.2°C 74% 0.7 mph SE1.1 kmh SE 3.8 mph6.1 kmh 29.30 in992.2 mb 0.00 in0.0 mm 0.00 in0.0 mm 0.00 in0.0 mm
01:30 AM 43.5°F6.4°C 35.8°F2.1°C 74% 1.6 mph SSE2.6 kmh SSE 3.8 mph6.1 kmh 29.31 in992.6 mb 0.00 in0.0 mm 0.00 in0.0 mm 0.00 in0.0 mm
01:45 AM 43.3°F6.3°C 35.6°F2.0°C 74% 1.6 mph SE2.6 kmh SE 3.8 mph6.1 kmh 29.31 in992.6 mb 0.00 in0.0 mm 0.00 in0.0 mm 0.00 in0.0 mm
02:00 AM 43.0°F6.1°C 34.9°F1.6°C 73% 1.6 mph SE2.6 kmh SE 3.1 mph5.0 kmh 29.31 in992.6 mb 0.00 in0.0 mm 0.00 in0.0 mm 0.00 in0.0 mm
02:15 AM 42.6°F5.9°C 34.9°F1.6°C 74% 2.2 mph SE3.5 kmh SE 3.1 mph5.0 kmh 29.32 in992.9 mb 0.00 in0.0 mm 0.00 in0.0 mm 0.00 in0.0 mm
02:30 AM 42.3°F5.7°C 34.6°F1.4°C 74% 2.2 mph ESE3.5 kmh ESE 4.5 mph7.2 kmh 29.30 in992.2 mb 0.00 in0.0 mm 0.00 in0.0 mm 0.00 in0.0 mm
02:45 AM 42.1°F5.6°C 34.4°F1.3°C 74% 2.2 mph SE3.5 kmh SE 3.1 mph5.0 kmh 29.30 in992.2 mb 0.00 in0.0 mm 0.00 in0.0 mm 0.00 in0.0 mm
03:00 AM 42.1°F5.6°C 34.7°F1.5°C 75% 2.2 mph SE3.5 kmh SE 4.5 mph7.2 kmh 29.31 in992.6 mb 0.00 in0.0 mm 0.00 in0.0 mm 0.00 in0.0 mm
03:15 AM 42.4°F5.8°C 35.7°F2.1°C 77% 2.2 mph SE3.5 kmh SE 4.5 mph7.2 kmh 29.31 in992.6 mb 0.00 in0.0 mm 0.00 in0.0 mm 0.00 in0.0 mm
03:30 AM 42.6°F5.9°C 35.9°F2.2°C 77% 3.1 mph SE5.0 kmh SE 4.5 mph7.2 kmh 29.31 in992.6 mb 0.00 in0.0 mm 0.00 in0.0 mm 0.00 in0.0 mm
03:45 AM 43.0°F6.1°C 36.6°F2.6°C 78% 3.1 mph SE5.0 kmh SE 4.5 mph7.2 kmh 29.31 in992.6 mb 0.00 in0.0 mm 0.00 in0.0 mm 0.00 in0.0 mm
04:00 AM 43.3°F6.3°C 36.6°F2.6°C 77% 3.1 mph ESE5.0 kmh ESE 4.5 mph7.2 kmh 29.31 in992.6 mb 0.00 in0.0 mm 0.00 in0.0 mm 0.00 in0.0 mm
04:15 AM 43.3°F6.3°C 36.3°F2.4°C 76% 2.2 mph SE3.5 kmh SE 4.5 mph7.2 kmh 29.31 in992.6 mb 0.00 in0.0 mm 0.00 in0.0 mm 0.00 in0.0 mm
04:30 AM 43.2°F6.2°C 35.8°F2.1°C 75% 3.1 mph ESE5.0 kmh ESE 4.5 mph7.2 kmh 29.32 in992.9 mb 0.00 in0.0 mm 0.00 in0.0 mm 0.00 in0.0 mm
04:45 AM 43.2°F6.2°C 35.8°F2.1°C 75% 3.8 mph ESE6.1 kmh ESE 6.0 mph9.7 kmh 29.31 in992.6 mb 0.00 in0.0 mm 0.00 in0.0 mm 0.00 in0.0 mm
05:00 AM 43.0°F6.1°C 35.6°F2.0°C 75% 4.5 mph SE7.2 kmh SE 6.0 mph9.7 kmh 29.32 in992.9 mb 0.00 in0.0 mm 0.00 in0.0 mm 0.00 in0.0 mm
05:15 AM 42.8°F6.0°C 35.4°F1.9°C 75% 4.5 mph ESE7.2 kmh ESE 6.9 mph11.1 kmh 29.31 in992.6 mb 0.00 in0.0 mm 0.00 in0.0 mm 0.00 in0.0 mm
05:30 AM 42.6°F5.9°C 35.2°F1.8°C 75% 5.4 mph ESE8.7 kmh ESE 6.9 mph11.1 kmh 29.31 in992.6 mb 0.00 in0.0 mm 0.00 in0.0 mm 0.00 in0.0 mm
05:45 AM 42.6°F5.9°C 35.2°F1.8°C 75% 5.4 mph SE8.7 kmh SE 7.6 mph12.2 kmh 29.31 in992.6 mb 0.00 in0.0 mm 0.00 in0.0 mm 0.00 in0.0 mm
06:00 AM 42.8°F6.0°C 35.4°F1.9°C 75% 4.5 mph SE7.2 kmh SE 7.6 mph12.2 kmh 29.31 in992.6 mb 0.00 in0.0 mm 0.00 in0.0 mm 0.00 in0.0 mm
06:15 AM 43.2°F6.2°C 36.1°F2.3°C 76% 4.5 mph SE7.2 kmh SE 7.6 mph12.2 kmh 29.31 in992.6 mb 0.00 in0.0 mm 0.00 in0.0 mm 0.00 in0.0 mm
06:30 AM 43.9°F6.6°C 36.8°F2.7°C 76% 7.6 mph ESE12.2 kmh ESE 9.2 mph14.8 kmh 29.31 in992.6 mb 0.00 in0.0 mm 0.00 in0.0 mm 0.00 in0.0 mm
06:45 AM 45.0°F7.2°C 37.8°F3.2°C 76% 4.5 mph SE7.2 kmh SE 8.3 mph13.4 kmh 29.32 in992.9 mb 0.00 in0.0 mm 0.00 in0.0 mm 0.00 in0.0 mm
07:00 AM 46.0°F7.8°C 37.2°F2.9°C 71% 4.5 mph SE7.2 kmh SE 9.8 mph15.8 kmh 29.31 in992.6 mb 0.00 in0.0 mm 0.00 in0.0 mm 0.00 in0.0 mm
07:15 AM 47.8°F8.8°C 38.5°F3.6°C 70% 6.0 mph SE9.7 kmh SE 9.8 mph15.8 kmh 29.31 in992.6 mb 0.00 in0.0 mm 0.00 in0.0 mm 0.00 in0.0 mm
07:30 AM 49.3°F9.6°C 39.2°F4.0°C 68% 5.4 mph SE8.7 kmh SE 13.0 mph20.9 kmh 29.32 in992.9 mb 0.00 in0.0 mm 0.00 in0.0 mm 0.00 in0.0 mm
07:45 AM 50.7°F10.4°C 39.8°F4.3°C 66% 9.8 mph SE15.8 kmh SE 13.6 mph21.9 kmh 29.31 in992.6 mb 0.00 in0.0 mm 0.00 in0.0 mm 0.00 in0.0 mm
08:00 AM 52.3°F11.3°C 40.5°F4.7°C 64% 6.9 mph SE11.1 kmh SE 17.4 mph28.0 kmh 29.31 in992.6 mb 0.00 in0.0 mm 0.00 in0.0 mm 0.00 in0.0 mm
08:15 AM 54.1°F12.3°C 41.8°F5.4°C 63% 13.6 mph SE21.9 kmh SE 15.9 mph25.6 kmh 29.31 in992.6 mb 0.00 in0.0 mm 0.00 in0.0 mm 0.00 in0.0 mm
08:30 AM 55.6°F13.1°C 41.5°F5.3°C 59% 6.9 mph SE11.1 kmh SE 15.9 mph25.6 kmh 29.31 in992.6 mb 0.00 in0.0 mm 0.00 in0.0 mm 0.00 in0.0 mm
08:45 AM 57.6°F14.2°C 42.9°F6.1°C 58% 10.7 mph ESE17.2 kmh ESE 15.2 mph24.5 kmh 29.31 in992.6 mb 0.00 in0.0 mm 0.00 in0.0 mm 0.00 in0.0 mm
09:00 AM 59.4°F15.2°C 42.7°F5.9°C 54% 7.6 mph SE12.2 kmh SE 19.0 mph30.6 kmh 29.31 in992.6 mb 0.00 in0.0 mm 0.00 in0.0 mm 0.00 in0.0 mm
09:15 AM 61.0°F16.1°C 44.2°F6.8°C 54% 11.4 mph SE18.3 kmh SE 14.5 mph23.3 kmh 29.31 in992.6 mb 0.00 in0.0 mm 0.00 in0.0 mm 0.00 in0.0 mm
09:30 AM 62.2°F16.8°C 44.4°F6.9°C 52% 9.2 mph SE14.8 kmh SE 13.6 mph21.9 kmh 29.30 in992.2 mb 0.00 in0.0 mm 0.00 in0.0 mm 0.00 in0.0 mm
09:45 AM 63.5°F17.5°C 44.0°F6.7°C 49% 7.6 mph SE12.2 kmh SE 13.6 mph21.9 kmh 29.30 in992.2 mb 0.00 in0.0 mm 0.00 in0.0 mm 0.00 in0.0 mm
10:00 AM 64.9°F18.3°C 44.2°F6.8°C 47% 3.8 mph SE6.1 kmh SE 14.5 mph23.3 kmh 29.30 in992.2 mb 0.00 in0.0 mm 0.00 in0.0 mm 0.00 in0.0 mm
10:15 AM 66.7°F19.3°C 44.7°F7.1°C 45% 3.8 mph E6.1 kmh E 9.8 mph15.8 kmh 29.29 in991.9 mb 0.00 in0.0 mm 0.00 in0.0 mm 0.00 in0.0 mm
10:30 AM 68.0°F20.0°C 43.4°F6.3°C 41% 7.6 mph SE12.2 kmh SE 12.1 mph19.5 kmh 29.29 in991.9 mb 0.00 in0.0 mm 0.00 in0.0 mm 0.00 in0.0 mm
10:45 AM 68.9°F20.5°C 43.6°F6.4°C 40% 6.9 mph SE11.1 kmh SE 13.0 mph20.9 kmh 29.29 in991.9 mb 0.00 in0.0 mm 0.00 in0.0 mm 0.00 in0.0 mm
11:00 AM 70.0°F21.1°C 44.5°F6.9°C 40% 4.5 mph SSE7.2 kmh SSE 15.2 mph24.5 kmh 29.28 in991.5 mb 0.00 in0.0 mm 0.00 in0.0 mm 0.00 in0.0 mm
11:15 AM 70.5°F21.4°C 45.0°F7.2°C 40% 9.8 mph ESE15.8 kmh ESE 13.0 mph20.9 kmh 29.28 in991.5 mb 0.00 in0.0 mm 0.00 in0.0 mm 0.00 in0.0 mm
11:30 AM 70.5°F21.4°C 43.7°F6.5°C 38% 12.1 mph S19.5 kmh S 15.2 mph24.5 kmh 29.27 in991.2 mb 0.00 in0.0 mm 0.00 in0.0 mm 0.00 in0.0 mm
11:45 AM 70.5°F21.4°C 43.0°F6.1°C 37% 9.2 mph S14.8 kmh S 16.8 mph27.0 kmh 29.27 in991.2 mb 0.00 in0.0 mm 0.00 in0.0 mm 0.00 in0.0 mm
12:00 PM 70.9°F21.6°C 44.7°F7.1°C 39% 6.9 mph SSE11.1 kmh SSE 15.9 mph25.6 kmh 29.26 in990.9 mb 0.00 in0.0 mm 0.00 in0.0 mm 0.00 in0.0 mm
12:15 PM 71.1°F21.7°C 45.5°F7.5°C 40% 10.7 mph S17.2 kmh S 13.6 mph21.9 kmh 29.26 in990.9 mb 0.00 in0.0 mm 0.00 in0.0 mm 0.00 in0.0 mm
12:30 PM 71.1°F21.7°C 44.2°F6.8°C 38% 12.1 mph SE19.5 kmh SE 16.8 mph27.0 kmh 29.25 in990.5 mb 0.00 in0.0 mm 0.00 in0.0 mm 0.00 in0.0 mm
12:45 PM 71.6°F22.0°C 44.6°F7.0°C 38% 6.9 mph SSE11.1 kmh SSE 15.2 mph24.5 kmh 29.25 in990.5 mb 0.00 in0.0 mm 0.00 in0.0 mm 0.00 in0.0 mm
01:00 PM 72.0°F22.2°C 44.3°F6.8°C 37% 6.9 mph SSE11.1 kmh SSE 18.3 mph29.5 kmh 29.24 in990.2 mb 0.00 in0.0 mm 0.00 in0.0 mm 0.00 in0.0 mm
01:15 PM 70.7°F21.5°C 45.2°F7.3°C 40% 8.3 mph SSE13.4 kmh SSE 12.1 mph19.5 kmh 29.24 in990.2 mb 0.00 in0.0 mm 0.00 in0.0 mm 0.00 in0.0 mm
01:30 PM 71.6°F22.0°C 46.0°F7.8°C 40% 6.9 mph SE11.1 kmh SE 15.2 mph24.5 kmh 29.23 in989.8 mb 0.00 in0.0 mm 0.00 in0.0 mm 0.00 in0.0 mm
01:45 PM 71.6°F22.0°C 46.0°F7.8°C 40% 6.9 mph SE11.1 kmh SE 13.0 mph20.9 kmh 29.23 in989.8 mb 0.00 in0.0 mm 0.00 in0.0 mm 0.00 in0.0 mm
02:00 PM 71.2°F21.8°C 45.7°F7.6°C 40% 9.2 mph SE14.8 kmh SE 14.5 mph23.3 kmh 29.23 in989.8 mb 0.00 in0.0 mm 0.00 in0.0 mm 0.00 in0.0 mm
02:15 PM 70.3°F21.3°C 44.9°F7.2°C 40% 6.0 mph S9.7 kmh S 13.0 mph20.9 kmh 29.23 in989.8 mb 0.00 in0.0 mm 0.00 in0.0 mm 0.00 in0.0 mm
02:30 PM 69.4°F20.8°C 44.7°F7.1°C 41% 9.8 mph E15.8 kmh E 13.0 mph20.9 kmh 29.23 in989.8 mb 0.00 in0.0 mm 0.00 in0.0 mm 0.00 in0.0 mm
02:45 PM 68.7°F20.4°C 45.9°F7.7°C 44% 3.1 mph SE5.0 kmh SE 9.2 mph14.8 kmh 29.23 in989.8 mb 0.00 in0.0 mm 0.00 in0.0 mm 0.00 in0.0 mm
03:00 PM 68.5°F20.3°C 45.8°F7.7°C 44% 4.5 mph SSE7.2 kmh SSE 12.1 mph19.5 kmh 29.23 in989.8 mb 0.00 in0.0 mm 0.00 in0.0 mm 0.00 in0.0 mm
03:15 PM 67.8°F19.9°C 45.7°F7.6°C 45% 6.0 mph SSE9.7 kmh SSE 9.8 mph15.8 kmh 29.23 in989.8 mb 0.00 in0.0 mm 0.00 in0.0 mm 0.00 in0.0 mm
03:30 PM 66.9°F19.4°C 46.6°F8.1°C 48% 3.8 mph S6.1 kmh S 7.6 mph12.2 kmh 29.23 in989.8 mb 0.00 in0.0 mm 0.00 in0.0 mm 0.00 in0.0 mm
03:45 PM 66.2°F19.0°C 47.0°F8.3°C 50% 5.4 mph SSE8.7 kmh SSE 7.6 mph12.2 kmh 29.23 in989.8 mb 0.00 in0.0 mm 0.00 in0.0 mm 0.00 in0.0 mm
04:00 PM 65.8°F18.8°C 47.2°F8.4°C 51% 3.1 mph SE5.0 kmh SE 9.2 mph14.8 kmh 29.22 in989.5 mb 0.00 in0.0 mm 0.00 in0.0 mm 0.00 in0.0 mm
04:15 PM 65.5°F18.6°C 47.4°F8.6°C 52% 6.0 mph SSE9.7 kmh SSE 7.6 mph12.2 kmh 29.23 in989.8 mb 0.00 in0.0 mm 0.00 in0.0 mm 0.00 in0.0 mm
04:30 PM 64.9°F18.3°C 46.4°F8.0°C 51% 9.2 mph S14.8 kmh S 11.4 mph18.3 kmh 29.23 in989.8 mb 0.00 in0.0 mm 0.00 in0.0 mm 0.00 in0.0 mm
04:45 PM 64.6°F18.1°C 46.0°F7.8°C 51% 3.1 mph SSE5.0 kmh SSE 8.3 mph13.4 kmh 29.23 in989.8 mb 0.00 in0.0 mm 0.00 in0.0 mm 0.00 in0.0 mm
05:00 PM 64.0°F17.8°C 46.1°F7.8°C 52% 4.5 mph SSE7.2 kmh SSE 7.6 mph12.2 kmh 29.22 in989.5 mb 0.00 in0.0 mm 0.00 in0.0 mm 0.00 in0.0 mm
05:15 PM 63.7°F17.6°C 46.2°F7.9°C 53% 3.8 mph SSE6.1 kmh SSE 7.6 mph12.2 kmh 29.21 in989.2 mb 0.00 in0.0 mm 0.00 in0.0 mm 0.00 in0.0 mm
05:30 PM 63.1°F17.3°C 47.7°F8.7°C 57% 4.5 mph SE7.2 kmh SE 7.6 mph12.2 kmh 29.22 in989.5 mb 0.00 in0.0 mm 0.00 in0.0 mm 0.00 in0.0 mm
05:45 PM 62.8°F17.1°C 47.3°F8.5°C 57% 3.8 mph S6.1 kmh S 8.3 mph13.4 kmh 29.22 in989.5 mb 0.00 in0.0 mm 0.00 in0.0 mm 0.00 in0.0 mm
06:00 PM 62.1°F16.7°C 47.1°F8.4°C 58% 4.5 mph SE7.2 kmh SE 7.6 mph12.2 kmh 29.21 in989.2 mb 0.00 in0.0 mm 0.00 in0.0 mm 0.00 in0.0 mm
06:15 PM 61.2°F16.2°C 46.7°F8.2°C 59% 4.5 mph SSE7.2 kmh SSE 6.9 mph11.1 kmh 29.21 in989.2 mb 0.00 in0.0 mm 0.00 in0.0 mm 0.00 in0.0 mm
06:30 PM 60.6°F15.9°C 46.7°F8.2°C 60% 3.1 mph SSE5.0 kmh SSE 6.0 mph9.7 kmh 29.21 in989.2 mb 0.00 in0.0 mm 0.00 in0.0 mm 0.00 in0.0 mm
06:45 PM 59.9°F15.5°C 46.0°F7.8°C 60% 3.1 mph SSE5.0 kmh SSE 5.4 mph8.7 kmh 29.21 in989.2 mb 0.00 in0.0 mm 0.00 in0.0 mm 0.00 in0.0 mm
07:00 PM 59.4°F15.2°C 45.5°F7.5°C 60% 3.8 mph S6.1 kmh S 6.0 mph9.7 kmh 29.21 in989.2 mb 0.00 in0.0 mm 0.00 in0.0 mm 0.00 in0.0 mm
07:15 PM 58.5°F14.7°C 45.1°F7.3°C 61% 3.1 mph S5.0 kmh S 6.0 mph9.7 kmh 29.21 in989.2 mb 0.00 in0.0 mm 0.00 in0.0 mm 0.00 in0.0 mm
07:30 PM 57.7°F14.3°C 44.8°F7.1°C 62% 2.2 mph S3.5 kmh S 6.9 mph11.1 kmh 29.21 in989.2 mb 0.00 in0.0 mm 0.00 in0.0 mm 0.00 in0.0 mm
07:45 PM 57.0°F13.9°C 44.1°F6.7°C 62% 3.1 mph S5.0 kmh S 5.4 mph8.7 kmh 29.21 in989.2 mb 0.00 in0.0 mm 0.00 in0.0 mm 0.00 in0.0 mm
08:00 PM 56.5°F13.6°C 43.6°F6.4°C 62% 2.2 mph SSE3.5 kmh SSE 3.8 mph6.1 kmh 29.21 in989.2 mb 0.00 in0.0 mm 0.00 in0.0 mm 0.00 in0.0 mm
08:15 PM 55.9°F13.3°C 43.5°F6.4°C 63% 2.2 mph SSE3.5 kmh SSE 4.5 mph7.2 kmh 29.21 in989.2 mb 0.00 in0.0 mm 0.00 in0.0 mm 0.00 in0.0 mm
08:30 PM 55.2°F12.9°C 42.8°F6.0°C 63% 2.2 mph SE3.5 kmh SE 4.5 mph7.2 kmh 29.21 in989.2 mb 0.00 in0.0 mm 0.00 in0.0 mm 0.00 in0.0 mm
08:45 PM 54.5°F12.5°C 42.6°F5.9°C 64% 3.1 mph SSE5.0 kmh SSE 4.5 mph7.2 kmh 29.20 in988.8 mb 0.00 in0.0 mm 0.00 in0.0 mm 0.00 in0.0 mm
09:00 PM 54.3°F12.4°C 44.4°F6.9°C 69% 3.8 mph SE6.1 kmh SE 5.4 mph8.7 kmh 29.20 in988.8 mb 0.00 in0.0 mm 0.00 in0.0 mm 0.00 in0.0 mm
09:15 PM 54.1°F12.3°C 43.8°F6.6°C 68% 2.2 mph SE3.5 kmh SE 4.5 mph7.2 kmh 29.20 in988.8 mb 0.00 in0.0 mm 0.00 in0.0 mm 0.00 in0.0 mm
09:30 PM 54.0°F12.2°C 43.6°F6.4°C 68% 3.1 mph ESE5.0 kmh ESE 3.8 mph6.1 kmh 29.19 in988.5 mb 0.00 in0.0 mm 0.00 in0.0 mm 0.00 in0.0 mm
09:45 PM 53.6°F12.0°C 43.3°F6.3°C 68% 0.7 mph SE1.1 kmh SE 3.1 mph5.0 kmh 29.19 in988.5 mb 0.00 in0.0 mm 0.00 in0.0 mm 0.00 in0.0 mm
10:00 PM 52.9°F11.6°C 43.0°F6.1°C 69% Calm Calm 1.6 mph2.6 kmh 29.19 in988.5 mb 0.00 in0.0 mm 0.00 in0.0 mm 0.00 in0.0 mm
10:15 PM 52.0°F11.1°C 42.5°F5.8°C 70% Calm Calm -- 29.20 in988.8 mb 0.00 in0.0 mm 0.00 in0.0 mm 0.00 in0.0 mm
10:30 PM 51.4°F10.8°C 42.0°F5.6°C 70% Calm Calm -- 29.20 in988.8 mb 0.00 in0.0 mm 0.00 in0.0 mm 0.00 in0.0 mm
10:45 PM 51.1°F10.6°C 42.0°F5.6°C 71% 1.6 mph SE2.6 kmh SE 3.1 mph5.0 kmh 29.20 in988.8 mb 0.00 in0.0 mm 0.00 in0.0 mm 0.00 in0.0 mm
11:00 PM 50.5°F10.3°C 41.5°F5.3°C 71% 0.7 mph SE1.1 kmh SE 2.2 mph3.5 kmh 29.20 in988.8 mb 0.00 in0.0 mm 0.00 in0.0 mm 0.00 in0.0 mm
11:15 PM 50.2°F10.1°C 41.5°F5.3°C 72% 2.2 mph SSE3.5 kmh SSE 3.1 mph5.0 kmh 29.19 in988.5 mb 0.00 in0.0 mm 0.00 in0.0 mm 0.00 in0.0 mm
11:30 PM 49.6°F9.8°C 41.0°F5.0°C 72% 1.6 mph SE2.6 kmh SE 2.2 mph3.5 kmh 29.19 in988.5 mb 0.00 in0.0 mm 0.00 in0.0 mm 0.00 in0.0 mm
11:45 PM 49.3°F9.6°C 40.6°F4.8°C 72% 0.7 mph SE1.1 kmh SE 2.2 mph3.5 kmh 29.20 in988.8 mb 0.00 in0.0 mm 0.00 in0.0 mm 0.00 in0.0 mm